Green Garnet — 3FEH6 — position and weather

sailwx.info

Track history (hours):
 
Tides and Currents Weather Stations Pressure Air Temp Water Temp Dewpoint Dewpoint Depression Visibility Wind Speed Wind Dir Waves Ship Positions

Green Garnet

Last reported at 2018-Jan-30 05:19 UTC. Time now 2018-Feb-18 18:21 UTC.
Position N 32°38' W 126°19'.
Warning: this ship's position is 19 days out of date.

Length 209 m; draft 10.9 m.

Type: Ship. MMSI: 356345000.

Date/timePositionNaut miles runAvg speedWind from/ knotsBaromVisibWave heightAir tempDewpointWater temp
2018-Jan-30 05:19N 32°38' W 126°19'511.4
2018-Jan-30 04:54N 32°37' W 126°13'511.6
2018-Jan-30 04:30N 32°36' W 126°08'611.2
2018-Jan-30 03:59N 32°35' W 126°01'511.3
2018-Jan-30 03:30N 32°34' W 125°55'611.3
2018-Jan-30 03:00N 32°33' W 125°48'611.6
2018-Jan-30 02:30N 32°32' W 125°41'611.5
2018-Jan-30 02:00N 32°31' W 125°35'1311.3
2018-Jan-30 00:54N 32°28' W 125°20'411.1
2018-Jan-30 00:30N 32°27' W 125°15'611.3
2018-Jan-30 00:00N 32°26' W 125°09'711.5
2018-Jan-29 23:22N 32°25' W 125°00'411.6
2018-Jan-29 23:00N 32°24' W 124°55'611.8
2018-Jan-29 22:30N 32°23' W 124°48'811.4
2018-Jan-29 21:47N 32°21' W 124°39'311.7
2018-Jan-29 21:30N 32°20' W 124°35'2111.6
2018-Jan-29 19:39N 32°16' W 124°10'211.8
2018-Jan-29 19:30N 32°16' W 124°08'611.6
2018-Jan-29 19:00N 32°14' W 124°01'611.4
2018-Jan-29 18:30N 32°13' W 123°55'611.2
2018-Jan-29 18:00N 32°12' W 123°48'611.4
2018-Jan-29 17:30N 32°12' W 123°42'611.5
2018-Jan-29 17:00N 32°12' W 123°35'611.2
2018-Jan-29 16:30N 32°12' W 123°28'611.3
2018-Jan-29 16:00N 32°12' W 123°22'611.4
2018-Jan-29 15:30N 32°12' W 123°15'611.5
2018-Jan-29 15:00N 32°12' W 123°08'611.4
2018-Jan-29 14:30N 32°12' W 123°01'611.6
2018-Jan-29 14:00N 32°12' W 122°54'611.5
2018-Jan-29 13:30N 32°12' W 122°48'611.7
2018-Jan-29 12:59N 32°12' W 122°40'511.5
2018-Jan-29 12:30N 32°12' W 122°34'611.4
2018-Jan-29 12:00N 32°12' W 122°27'611.3
2018-Jan-29 11:30N 32°12' W 122°21'611.4
2018-Jan-29 11:00N 32°12' W 122°14'611.2
2018-Jan-29 10:30N 32°12' W 122°07'511.0
2018-Jan-29 10:00N 32°12' W 122°01'611.3
2018-Jan-29 09:30N 32°12' W 121°54'2611.1
2018-Jan-29 07:07N 32°12' W 121°23'110.9
2018-Jan-29 07:00N 32°12' W 121°21'15110.6
2018-Jan-28 16:45N 32°33' W 118°24'311.3
2018-Jan-28 16:28N 32°35' W 118°21'511.2
2018-Jan-28 15:59N 32°38' W 118°15'511.1
2018-Jan-28 15:30N 32°43' W 118°13'711.4
2018-Jan-28 14:53N 32°49' W 118°09'411.5
2018-Jan-28 14:30N 32°53' W 118°07'611.4
2018-Jan-28 14:00N 32°58' W 118°04'611.4
2018-Jan-28 13:30N 33°04' W 118°02'510.1
2018-Jan-28 13:00N 33°09' W 118°02'510.0
2018-Jan-28 12:30N 33°13' W 118°04'510.2
2018-Jan-28 12:00N 33°18' W 118°06'510.2
2018-Jan-28 11:28N 33°23' W 118°08'510.5
2018-Jan-28 10:57N 33°28' W 118°10'810.1
2018-Jan-28 10:11N 33°36' W 118°13'210.1
2018-Jan-28 10:00N 33°37' W 118°13'5 9.5
2018-Jan-28 09:29N 33°42' W 118°11'2 2.7
2018-Jan-28 08:46N 33°44' W 118°10'0 0.0
2018-Jan-28 04:07N 33°44' W 118°10'0 0.0
2018-Jan-28 03:55N 33°44' W 118°10'0 0.0
2018-Jan-28 03:28N 33°44' W 118°10'0 0.0
2018-Jan-28 02:55N 33°44' W 118°10'0 0.1
2018-Jan-28 02:25N 33°44' W 118°10'0 0.1
2018-Jan-28 01:58N 33°44' W 118°10'0 0.0
2018-Jan-28 01:28N 33°44' W 118°10'0 0.0
2018-Jan-28 00:58N 33°44' W 118°10'0 0.0
2018-Jan-28 00:28N 33°44' W 118°10'0 0.1
2018-Jan-27 23:58N 33°44' W 118°10'0 0.2
2018-Jan-27 23:28N 33°44' W 118°10'0 0.3
2018-Jan-27 22:58N 33°44' W 118°10'0 0.1
2018-Jan-27 22:30N 33°44' W 118°10'3 5.8
2018-Jan-27 22:00N 33°41' W 118°11'3 6.2
2018-Jan-27 21:30N 33°38' W 118°10'3 6.2
2018-Jan-27 21:00N 33°35' W 118°09'3 5.6
2018-Jan-27 20:30N 33°32' W 118°08'3 6.3
2018-Jan-27 20:00N 33°29' W 118°07'3 6.1
2018-Jan-27 19:30N 33°27' W 118°06'3 6.2
2018-Jan-27 19:00N 33°24' W 118°05'3 6.8
2018-Jan-27 18:30N 33°20' W 118°03'5 9.1
2018-Jan-27 18:00N 33°16' W 118°01'5 9.2
2018-Jan-27 17:30N 33°12' W 117°60'5 9.0
2018-Jan-27 17:00N 33°08' W 117°58'4 8.5
2018-Jan-27 16:30N 33°03' W 117°56'4 8.6
2018-Jan-27 16:00N 32°59' W 117°55'5 8.9
2018-Jan-27 15:29N 32°55' W 117°54'5 9.4
2018-Jan-27 15:00N 32°50' W 117°53'510.9
2018-Jan-27 14:30N 32°45' W 117°51'611.3
2018-Jan-27 14:01N 32°40' W 117°50'611.6
2018-Jan-27 13:30N 32°34' W 117°48'611.6
2018-Jan-27 13:00N 32°29' W 117°46'611.9
2018-Jan-27 12:30N 32°23' W 117°43'611.4
2018-Jan-27 12:00N 32°18' W 117°41'612.0
2018-Jan-27 11:30N 32°12' W 117°39'611.8
2018-Jan-27 11:00N 32°06' W 117°37'5 6.3
2018-Jan-27 10:13N 32°02' W 117°34'210.4
2018-Jan-27 09:59N 31°59' W 117°34'  
Track history (hours):
 
Tides and Currents Weather Stations Pressure Air Temp Water Temp Dewpoint Dewpoint Depression Visibility Wind Speed Wind Dir Waves Ship Positions

Green Garnet

Last reported at 2018-Jan-30 05:19 UTC. Time now 2018-Feb-18 18:21 UTC.
Position N 32°38' W 126°19'.
Warning: this ship's position is 19 days out of date.

Length 209 m; draft 10.9 m.

Type: Ship. MMSI: 356345000.

Date/timePositionNaut miles runAvg speedWind from/ knotsBaromVisibWave heightAir tempDewpointWater temp
2018-Jan-30 05:19N 32°38' W 126°19'511.4
2018-Jan-30 04:54N 32°37' W 126°13'511.6
2018-Jan-30 04:30N 32°36' W 126°08'611.2
2018-Jan-30 03:59N 32°35' W 126°01'511.3
2018-Jan-30 03:30N 32°34' W 125°55'611.3
2018-Jan-30 03:00N 32°33' W 125°48'611.6
2018-Jan-30 02:30N 32°32' W 125°41'611.5
2018-Jan-30 02:00N 32°31' W 125°35'1311.3
2018-Jan-30 00:54N 32°28' W 125°20'411.1
2018-Jan-30 00:30N 32°27' W 125°15'611.3
2018-Jan-30 00:00N 32°26' W 125°09'711.5
2018-Jan-29 23:22N 32°25' W 125°00'411.6
2018-Jan-29 23:00N 32°24' W 124°55'611.8
2018-Jan-29 22:30N 32°23' W 124°48'811.4
2018-Jan-29 21:47N 32°21' W 124°39'311.7
2018-Jan-29 21:30N 32°20' W 124°35'2111.6
2018-Jan-29 19:39N 32°16' W 124°10'211.8
2018-Jan-29 19:30N 32°16' W 124°08'611.6
2018-Jan-29 19:00N 32°14' W 124°01'611.4
2018-Jan-29 18:30N 32°13' W 123°55'611.2
2018-Jan-29 18:00N 32°12' W 123°48'611.4
2018-Jan-29 17:30N 32°12' W 123°42'611.5
2018-Jan-29 17:00N 32°12' W 123°35'611.2
2018-Jan-29 16:30N 32°12' W 123°28'611.3
2018-Jan-29 16:00N 32°12' W 123°22'611.4
2018-Jan-29 15:30N 32°12' W 123°15'611.5
2018-Jan-29 15:00N 32°12' W 123°08'611.4
2018-Jan-29 14:30N 32°12' W 123°01'611.6
2018-Jan-29 14:00N 32°12' W 122°54'611.5
2018-Jan-29 13:30N 32°12' W 122°48'611.7
2018-Jan-29 12:59N 32°12' W 122°40'511.5
2018-Jan-29 12:30N 32°12' W 122°34'611.4
2018-Jan-29 12:00N 32°12' W 122°27'611.3
2018-Jan-29 11:30N 32°12' W 122°21'611.4
2018-Jan-29 11:00N 32°12' W 122°14'611.2
2018-Jan-29 10:30N 32°12' W 122°07'511.0
2018-Jan-29 10:00N 32°12' W 122°01'611.3
2018-Jan-29 09:30N 32°12' W 121°54'2611.1
2018-Jan-29 07:07N 32°12' W 121°23'110.9
2018-Jan-29 07:00N 32°12' W 121°21'15110.6
2018-Jan-28 16:45N 32°33' W 118°24'311.3
2018-Jan-28 16:28N 32°35' W 118°21'511.2
2018-Jan-28 15:59N 32°38' W 118°15'511.1
2018-Jan-28 15:30N 32°43' W 118°13'711.4
2018-Jan-28 14:53N 32°49' W 118°09'411.5
2018-Jan-28 14:30N 32°53' W 118°07'611.4
2018-Jan-28 14:00N 32°58' W 118°04'611.4
2018-Jan-28 13:30N 33°04' W 118°02'510.1
2018-Jan-28 13:00N 33°09' W 118°02'510.0
2018-Jan-28 12:30N 33°13' W 118°04'510.2
2018-Jan-28 12:00N 33°18' W 118°06'510.2
2018-Jan-28 11:28N 33°23' W 118°08'510.5
2018-Jan-28 10:57N 33°28' W 118°10'810.1
2018-Jan-28 10:11N 33°36' W 118°13'210.1
2018-Jan-28 10:00N 33°37' W 118°13'5 9.5
2018-Jan-28 09:29N 33°42' W 118°11'2 2.7
2018-Jan-28 08:46N 33°44' W 118°10'0 0.0
2018-Jan-28 04:07N 33°44' W 118°10'0 0.0
2018-Jan-28 03:55N 33°44' W 118°10'0 0.0
2018-Jan-28 03:28N 33°44' W 118°10'0 0.0
2018-Jan-28 02:55N 33°44' W 118°10'0 0.1
2018-Jan-28 02:25N 33°44' W 118°10'0 0.1
2018-Jan-28 01:58N 33°44' W 118°10'0 0.0
2018-Jan-28 01:28N 33°44' W 118°10'0 0.0
2018-Jan-28 00:58N 33°44' W 118°10'0 0.0
2018-Jan-28 00:28N 33°44' W 118°10'0 0.1
2018-Jan-27 23:58N 33°44' W 118°10'0 0.2
2018-Jan-27 23:28N 33°44' W 118°10'0 0.3
2018-Jan-27 22:58N 33°44' W 118°10'0 0.1
2018-Jan-27 22:30N 33°44' W 118°10'3 5.8
2018-Jan-27 22:00N 33°41' W 118°11'3 6.2
2018-Jan-27 21:30N 33°38' W 118°10'3 6.2
2018-Jan-27 21:00N 33°35' W 118°09'3 5.6
2018-Jan-27 20:30N 33°32' W 118°08'3 6.3
2018-Jan-27 20:00N 33°29' W 118°07'3 6.1
2018-Jan-27 19:30N 33°27' W 118°06'3 6.2
2018-Jan-27 19:00N 33°24' W 118°05'3 6.8
2018-Jan-27 18:30N 33°20' W 118°03'5 9.1
2018-Jan-27 18:00N 33°16' W 118°01'5 9.2
2018-Jan-27 17:30N 33°12' W 117°60'5 9.0
2018-Jan-27 17:00N 33°08' W 117°58'4 8.5
2018-Jan-27 16:30N 33°03' W 117°56'4 8.6
2018-Jan-27 16:00N 32°59' W 117°55'5 8.9
2018-Jan-27 15:29N 32°55' W 117°54'5 9.4
2018-Jan-27 15:00N 32°50' W 117°53'510.9
2018-Jan-27 14:30N 32°45' W 117°51'611.3
2018-Jan-27 14:01N 32°40' W 117°50'611.6
2018-Jan-27 13:30N 32°34' W 117°48'611.6
2018-Jan-27 13:00N 32°29' W 117°46'611.9
2018-Jan-27 12:30N 32°23' W 117°43'611.4
2018-Jan-27 12:00N 32°18' W 117°41'612.0
2018-Jan-27 11:30N 32°12' W 117°39'611.8
2018-Jan-27 11:00N 32°06' W 117°37'5 6.3
2018-Jan-27 10:13N 32°02' W 117°34'210.4
2018-Jan-27 09:59N 31°59' W 117°34'  

Dump ship's entire track history